sensor_id;sensor_type;location;lat;lon;timestamp;pressure;altitude;pressure_sealevel;temperature;humidity
35908;BME280;22003;50.320;8.054;2023-02-28T05:00:24;100813.69;;;-4.54;100.00
35908;BME280;22003;50.320;8.054;2023-02-28T05:02:50;100817.16;;;-4.61;100.00
35908;BME280;22003;50.320;8.054;2023-02-28T05:05:15;100836.97;;;-4.46;100.00
35908;BME280;22003;50.320;8.054;2023-02-28T05:07:43;100821.44;;;-4.61;100.00
35908;BME280;22003;50.320;8.054;2023-02-28T05:10:09;100830.06;;;-4.62;100.00
35908;BME280;22003;50.320;8.054;2023-02-28T05:12:35;100815.44;;;-4.60;100.00
35908;BME280;22003;50.320;8.054;2023-02-28T05:15:00;100830.94;;;-4.57;100.00
35908;BME280;22003;50.320;8.054;2023-02-28T05:17:27;100841.28;;;-4.65;100.00
35908;BME280;22003;50.320;8.054;2023-02-28T05:19:52;100829.19;;;-4.69;100.00
35908;BME280;22003;50.320;8.054;2023-02-28T05:22:17;100808.47;;;-4.89;100.00
35908;BME280;22003;50.320;8.054;2023-02-28T05:24:42;100838.69;;;-4.54;100.00
35908;BME280;22003;50.320;8.054;2023-02-28T05:27:08;100822.31;;;-4.71;100.00
35908;BME280;22003;50.320;8.054;2023-02-28T05:29:33;100846.44;;;-4.68;100.00
35908;BME280;22003;50.320;8.054;2023-02-28T05:31:59;100821.44;;;-4.76;100.00
35908;BME280;22003;50.320;8.054;2023-02-28T05:34:24;100820.53;;;-4.97;100.00
35908;BME280;22003;50.320;8.054;2023-02-28T05:36:49;100829.22;;;-4.52;100.00
35908;BME280;22003;50.320;8.054;2023-02-28T05:39:15;100847.31;;;-4.44;100.00
35908;BME280;22003;50.320;8.054;2023-02-28T05:41:41;100842.13;;;-4.61;100.00
35908;BME280;22003;50.320;8.054;2023-02-28T05:44:07;100848.19;;;-4.53;100.00
35908;BME280;22003;50.320;8.054;2023-02-28T05:46:32;100817.94;;;-4.91;100.00
35908;BME280;22003;50.320;8.054;2023-02-28T05:48:57;100819.69;;;-4.81;100.00
35908;BME280;22003;50.320;8.054;2023-02-28T05:51:25;100845.59;;;-4.44;100.00
35908;BME280;22003;50.320;8.054;2023-02-28T05:53:50;100850.75;;;-4.39;100.00
35908;BME280;22003;50.320;8.054;2023-02-28T05:56:15;100854.22;;;-4.39;100.00
35908;BME280;22003;50.320;8.054;2023-02-28T05:58:40;100847.31;;;-4.29;100.00
35908;BME280;22003;50.320;8.054;2023-02-28T06:01:24;100855.97;;;-4.04;100.00
35908;BME280;22003;50.320;8.054;2023-02-28T06:03:50;100836.97;;;-3.94;100.00
35908;BME280;22003;50.320;8.054;2023-02-28T06:06:15;100833.50;;;-3.82;100.00
35908;BME280;22003;50.320;8.054;2023-02-28T06:08:41;100837.78;;;-3.70;100.00
35908;BME280;22003;50.320;8.054;2023-02-28T06:11:08;100858.47;;;-3.55;100.00
35908;BME280;22003;50.320;8.054;2023-02-28T06:13:34;100860.19;;;-3.50;100.00
35908;BME280;22003;50.320;8.054;2023-02-28T06:16:02;100857.53;;;-3.36;100.00
35908;BME280;22003;50.320;8.054;2023-02-28T06:18:28;100862.69;;;-3.30;99.82
35908;BME280;22003;50.320;8.054;2023-02-28T06:20:54;100860.09;;;-3.31;99.85
35908;BME280;22003;50.320;8.054;2023-02-28T06:23:20;100866.13;;;-3.26;99.33
35908;BME280;22003;50.320;8.054;2023-02-28T06:25:46;100864.38;;;-3.20;99.63
35908;BME280;22003;50.320;8.054;2023-02-28T06:28:11;100856.63;;;-3.29;99.28
35908;BME280;22003;50.320;8.054;2023-02-28T06:30:37;100853.19;;;-3.31;99.00
35908;BME280;22003;50.320;8.054;2023-02-28T06:33:02;100855.75;;;-3.25;99.30
35908;BME280;22003;50.320;8.054;2023-02-28T06:35:28;100856.59;;;-3.20;98.84
35908;BME280;22003;50.320;8.054;2023-02-28T06:37:53;100873.84;;;-3.05;98.63
35908;BME280;22003;50.320;8.054;2023-02-28T06:40:18;100873.84;;;-3.05;98.34
35908;BME280;22003;50.320;8.054;2023-02-28T06:42:43;100865.19;;;-3.04;97.47
35908;BME280;22003;50.320;8.054;2023-02-28T06:45:10;100872.03;;;-2.92;96.29
35908;BME280;22003;50.320;8.054;2023-02-28T06:47:40;100887.56;;;-2.87;96.27
35908;BME280;22003;50.320;8.054;2023-02-28T06:50:06;100871.19;;;-2.97;96.33
35908;BME280;22003;50.320;8.054;2023-02-28T06:52:32;100883.94;;;-2.62;95.17
35908;BME280;22003;50.320;8.054;2023-02-28T06:54:57;100890.94;;;-2.70;95.15
35908;BME280;22003;50.320;8.054;2023-02-28T06:57:29;100869.34;;;-2.78;94.96
35908;BME280;22003;50.320;8.054;2023-02-28T06:59:59;100884.88;;;-2.66;95.05
35908;BME280;22003;50.320;8.054;2023-02-28T07:02:25;100900.38;;;-2.58;94.39
35908;BME280;22003;50.320;8.054;2023-02-28T07:04:51;100874.50;;;-2.66;93.95
35908;BME280;22003;50.320;8.054;2023-02-28T07:07:16;100891.63;;;-2.42;93.69
35908;BME280;22003;50.320;8.054;2023-02-28T07:09:41;100895.19;;;-2.61;93.66
35908;BME280;22003;50.320;8.054;2023-02-28T07:12:06;100894.38;;;-2.70;94.12
35908;BME280;22003;50.320;8.054;2023-02-28T07:14:32;100874.56;;;-2.84;93.76
35908;BME280;22003;50.320;8.054;2023-02-28T07:16:57;100879.78;;;-2.89;94.42
35908;BME280;22003;50.320;8.054;2023-02-28T07:19:23;100874.50;;;-2.71;95.13
35908;BME280;22003;50.320;8.054;2023-02-28T07:21:48;100889.91;;;-2.43;94.90
35908;BME280;22003;50.320;8.054;2023-02-28T07:24:13;100888.56;;;-1.82;92.74
35908;BME280;22003;50.320;8.054;2023-02-28T07:26:40;100896.19;;;-1.66;92.07
35908;BME280;22003;50.320;8.054;2023-02-28T07:29:06;100900.41;;;-1.54;92.60
35908;BME280;22003;50.320;8.054;2023-02-28T07:31:31;100897.78;;;-1.52;90.89
35908;BME280;22003;50.320;8.054;2023-02-28T07:33:56;100887.09;;;-1.25;88.23
35908;BME280;22003;50.320;8.054;2023-02-28T07:36:22;100895.72;;;-1.23;87.95
35908;BME280;22003;50.320;8.054;2023-02-28T07:38:48;100867.41;;;-1.47;86.73
35908;BME280;22003;50.320;8.054;2023-02-28T07:41:16;100870.63;;;-1.25;87.43
35908;BME280;22003;50.320;8.054;2023-02-28T07:43:42;100887.09;;;-1.25;85.76
35908;BME280;22003;50.320;8.054;2023-02-28T07:46:12;100892.81;;;-0.97;86.31
35908;BME280;22003;50.320;8.054;2023-02-28T07:48:40;100897.09;;;-0.91;86.59
35908;BME280;22003;50.320;8.054;2023-02-28T07:51:05;100896.94;;;-0.79;84.52
35908;BME280;22003;50.320;8.054;2023-02-28T07:53:30;100898.59;;;-0.72;84.64
35908;BME280;22003;50.320;8.054;2023-02-28T07:55:56;100886.66;;;-0.88;84.65
35908;BME280;22003;50.320;8.054;2023-02-28T07:58:22;100869.25;;;-0.85;84.47
35908;BME280;22003;50.320;8.054;2023-02-28T08:00:47;100863.88;;;-0.71;83.01
35908;BME280;22003;50.320;8.054;2023-02-28T08:03:13;100896.00;;;-0.73;85.10
35908;BME280;22003;50.320;8.054;2023-02-28T08:05:39;100889.88;;;-0.69;84.29
35908;BME280;22003;50.320;8.054;2023-02-28T08:08:05;100884.72;;;-0.74;85.00
35908;BME280;22003;50.320;8.054;2023-02-28T08:10:30;100879.44;;;-0.66;84.25
35908;BME280;22003;50.320;8.054;2023-02-28T08:12:56;100866.88;;;-0.38;83.01
35908;BME280;22003;50.320;8.054;2023-02-28T08:15:21;100865.53;;;-0.65;82.35
35908;BME280;22003;50.320;8.054;2023-02-28T08:17:46;100885.91;;;-0.36;83.35
35908;BME280;22003;50.320;8.054;2023-02-28T08:20:12;100888.75;;;-0.50;81.15
35908;BME280;22003;50.320;8.054;2023-02-28T08:22:37;100861.59;;;-0.35;81.80
35908;BME280;22003;50.320;8.054;2023-02-28T08:25:02;100872.28;;;0.02;82.66
35908;BME280;22003;50.320;8.054;2023-02-28T08:27:27;100853.25;;;-0.57;78.63
35908;BME280;22003;50.320;8.054;2023-02-28T08:29:53;100879.09;;;-0.43;79.57
35908;BME280;22003;50.320;8.054;2023-02-28T08:32:18;100883.03;;;-0.16;80.31
35908;BME280;22003;50.320;8.054;2023-02-28T08:34:43;100856.84;;;-0.09;80.26
35908;BME280;22003;50.320;8.054;2023-02-28T08:37:08;100875.75;;;0.03;78.05
35908;BME280;22003;50.320;8.054;2023-02-28T08:39:35;100858.78;;;-0.23;77.04
35908;BME280;22003;50.320;8.054;2023-02-28T08:42:01;100869.59;;;0.08;78.05
35908;BME280;22003;50.320;8.054;2023-02-28T08:44:27;100854.94;;;0.01;77.51
35908;BME280;22003;50.320;8.054;2023-02-28T08:46:52;100841.47;;;-0.24;76.26
35908;BME280;22003;50.320;8.054;2023-02-28T08:49:18;100871.34;;;0.08;75.31
35908;BME280;22003;50.320;8.054;2023-02-28T08:51:43;100864.06;;;0.25;75.00
35908;BME280;22003;50.320;8.054;2023-02-28T08:54:09;100854.13;;;0.47;74.12
35908;BME280;22003;50.320;8.054;2023-02-28T08:56:37;100858.16;;;0.15;73.72
35908;BME280;22003;50.320;8.054;2023-02-28T08:59:02;100849.34;;;0.24;74.71
35908;BME280;22003;50.320;8.054;2023-02-28T09:01:28;100845.97;;;0.16;73.39
35908;BME280;22003;50.320;8.054;2023-02-28T09:03:55;100871.56;;;0.43;72.71
35908;BME280;22003;50.320;8.054;2023-02-28T09:06:22;100863.81;;;0.40;70.93
35908;BME280;22003;50.320;8.054;2023-02-28T09:08:48;100869.41;;;0.65;71.70
35908;BME280;22003;50.320;8.054;2023-02-28T09:11:14;100867.56;;;0.70;72.74
35908;BME280;22003;50.320;8.054;2023-02-28T09:13:39;100850.06;;;0.75;69.79
35908;BME280;22003;50.320;8.054;2023-02-28T09:16:07;100862.09;;;0.84;69.24
35908;BME280;22003;50.320;8.054;2023-02-28T09:18:37;100866.28;;;0.91;70.22
35908;BME280;22003;50.320;8.054;2023-02-28T09:21:11;100852.56;;;1.22;68.88
35908;BME280;22003;50.320;8.054;2023-02-28T09:23:39;100826.78;;;1.08;66.92
35908;BME280;22003;50.320;8.054;2023-02-28T09:26:05;100846.16;;;1.37;64.98
35908;BME280;22003;50.320;8.054;2023-02-28T09:28:31;100852.09;;;1.45;64.92
35908;BME280;22003;50.320;8.054;2023-02-28T09:30:57;100834.28;;;1.22;64.70
35908;BME280;22003;50.320;8.054;2023-02-28T09:33:24;100844.53;;;1.31;64.38
35908;BME280;22003;50.320;8.054;2023-02-28T09:35:51;100855.75;;;1.36;64.65
35908;BME280;22003;50.320;8.054;2023-02-28T09:38:22;100832.72;;;1.53;64.63
35908;BME280;22003;50.320;8.054;2023-02-28T09:40:53;100838.63;;;1.97;63.00
35908;BME280;22003;50.320;8.054;2023-02-28T09:43:22;100824.09;;;1.85;62.79
35908;BME280;22003;50.320;8.054;2023-02-28T09:48:53;100844.31;;;2.77;60.70
35908;BME280;22003;50.320;8.054;2023-02-28T09:51:30;100838.81;;;2.56;58.99
35908;BME280;22003;50.320;8.054;2023-02-28T09:53:58;100830.91;;;2.25;58.83
35908;BME280;22003;50.320;8.054;2023-02-28T09:56:50;100835.56;;;2.47;59.38
35908;BME280;22003;50.320;8.054;2023-02-28T09:59:29;100842.38;;;2.52;60.03
35908;BME280;22003;50.320;8.054;2023-02-28T10:07:39;100835.81;;;2.37;59.47
35908;BME280;22003;50.320;8.054;2023-02-28T10:13:15;100835.91;;;2.97;58.93
35908;BME280;22003;50.320;8.054;2023-02-28T10:15:44;100834.16;;;3.25;57.74
35908;BME280;22003;50.320;8.054;2023-02-28T10:18:16;100829.19;;;3.44;56.70
35908;BME280;22003;50.320;8.054;2023-02-28T10:20:45;100827.28;;;3.23;57.00
35908;BME280;22003;50.320;8.054;2023-02-28T10:23:21;100841.41;;;3.73;56.96
35908;BME280;22003;50.320;8.054;2023-02-28T10:25:54;100826.69;;;3.41;56.58
35908;BME280;22003;50.320;8.054;2023-02-28T10:28:20;100842.00;;;3.81;57.15
35908;BME280;22003;50.320;8.054;2023-02-28T10:30:48;100816.84;;;3.76;55.72
35908;BME280;22003;50.320;8.054;2023-02-28T10:33:18;100821.28;;;2.89;56.13
35908;BME280;22003;50.320;8.054;2023-02-28T10:35:45;100827.56;;;2.20;59.32
35908;BME280;22003;50.320;8.054;2023-02-28T10:38:17;100848.19;;;2.63;58.25
35908;BME280;22003;50.320;8.054;2023-02-28T10:40:43;100839.94;;;2.77;57.53
35908;BME280;22003;50.320;8.054;2023-02-28T10:45:53;100851.75;;;1.94;59.63
35908;BME280;22003;50.320;8.054;2023-02-28T10:50:51;100863.50;;;1.76;61.24
35908;BME280;22003;50.320;8.054;2023-02-28T10:59:00;100842.06;;;2.32;59.23
35908;BME280;22003;50.320;8.054;2023-02-28T11:03:54;100832.19;;;2.74;61.00
35908;BME280;22003;50.320;8.054;2023-02-28T11:06:31;100851.25;;;2.14;59.22
35908;BME280;22003;50.320;8.054;2023-02-28T11:09:00;100841.53;;;2.19;59.64
35908;BME280;22003;50.320;8.054;2023-02-28T11:11:28;100837.97;;;2.85;58.91
35908;BME280;22003;50.320;8.054;2023-02-28T11:13:57;100819.25;;;3.55;61.32
35908;BME280;22003;50.320;8.054;2023-02-28T11:16:35;100838.94;;;3.95;59.68
35908;BME280;22003;50.320;8.054;2023-02-28T11:19:02;100833.66;;;3.42;56.62
35908;BME280;22003;50.320;8.054;2023-02-28T11:21:32;100829.63;;;3.58;56.54
35908;BME280;22003;50.320;8.054;2023-02-28T11:24:04;100832.13;;;3.89;57.59
35908;BME280;22003;50.320;8.054;2023-02-28T11:26:42;100808.31;;;4.22;54.92
35908;BME280;22003;50.320;8.054;2023-02-28T11:29:21;100820.78;;;3.89;57.50
35908;BME280;22003;50.320;8.054;2023-02-28T11:32:11;100815.81;;;2.97;55.69
35908;BME280;22003;50.320;8.054;2023-02-28T11:34:38;100802.75;;;4.05;53.12
35908;BME280;22003;50.320;8.054;2023-02-28T11:37:05;100803.56;;;4.07;56.00
35908;BME280;22003;50.320;8.054;2023-02-28T11:39:32;100804.38;;;4.34;55.98
35908;BME280;22003;50.320;8.054;2023-02-28T11:45:11;100813.50;;;4.72;53.91
35908;BME280;22003;50.320;8.054;2023-02-28T11:50:23;100806.16;;;5.03;53.06
35908;BME280;22003;50.320;8.054;2023-02-28T12:04:55;100811.97;;;4.16;56.89
35908;BME280;22003;50.320;8.054;2023-02-28T12:12:29;100784.19;;;2.75;56.40
35908;BME280;22003;50.320;8.054;2023-02-28T12:15:16;100797.56;;;3.24;57.28
35908;BME280;22003;50.320;8.054;2023-02-28T12:25:43;100774.50;;;3.35;55.01
35908;BME280;22003;50.320;8.054;2023-02-28T12:28:17;100787.50;;;3.64;57.57
35908;BME280;22003;50.320;8.054;2023-02-28T12:30:58;100810.38;;;3.03;56.41
35908;BME280;22003;50.320;8.054;2023-02-28T12:33:31;100768.97;;;2.88;56.70
35908;BME280;22003;50.320;8.054;2023-02-28T12:36:02;100796.41;;;2.75;56.94
35908;BME280;22003;50.320;8.054;2023-02-28T12:38:43;100785.13;;;3.02;55.95
35908;BME280;22003;50.320;8.054;2023-02-28T12:41:14;100795.44;;;2.77;56.05
35908;BME280;22003;50.320;8.054;2023-02-28T12:43:44;100778.50;;;3.18;56.15
35908;BME280;22003;50.320;8.054;2023-02-28T12:46:16;100787.72;;;3.58;54.57
35908;BME280;22003;50.320;8.054;2023-02-28T12:48:48;100766.13;;;4.27;57.01
35908;BME280;22003;50.320;8.054;2023-02-28T12:51:16;100790.69;;;4.01;54.08
35908;BME280;22003;50.320;8.054;2023-02-28T12:54:02;100758.88;;;3.85;55.58
35908;BME280;22003;50.320;8.054;2023-02-28T12:59:17;100783.13;;;2.51;56.81
35908;BME280;22003;50.320;8.054;2023-02-28T13:09:59;100757.28;;;4.06;55.26
35908;BME280;22003;50.320;8.054;2023-02-28T13:12:25;100753.88;;;3.77;54.86
35908;BME280;22003;50.320;8.054;2023-02-28T13:15:03;100779.88;;;4.58;53.81
35908;BME280;22003;50.320;8.054;2023-02-28T13:17:29;100778.84;;;4.86;54.04
35908;BME280;22003;50.320;8.054;2023-02-28T13:22:35;100725.16;;;3.74;53.85
35908;BME280;22003;50.320;8.054;2023-02-28T13:27:49;100776.91;;;3.94;53.97
35908;BME280;22003;50.320;8.054;2023-02-28T13:33:32;100775.88;;;4.71;53.81
35908;BME280;22003;50.320;8.054;2023-02-28T13:38:44;100753.91;;;5.19;53.13
35908;BME280;22003;50.320;8.054;2023-02-28T13:44:22;100769.00;;;4.44;57.10
35908;BME280;22003;50.320;8.054;2023-02-28T13:49:26;100765.09;;;3.56;55.37
35908;BME280;22003;50.320;8.054;2023-02-28T13:57:45;100776.53;;;3.80;57.06
35908;BME280;22003;50.320;8.054;2023-02-28T14:03:23;100759.22;;;2.93;56.42
35908;BME280;22003;50.320;8.054;2023-02-28T14:06:25;100771.69;;;3.67;57.92
35908;BME280;22003;50.320;8.054;2023-02-28T14:09:01;100775.78;;;4.26;57.36
35908;BME280;22003;50.320;8.054;2023-02-28T14:11:35;100768.44;;;3.86;57.29
35908;BME280;22003;50.320;8.054;2023-02-28T14:14:03;100748.28;;;3.88;55.97
35908;BME280;22003;50.320;8.054;2023-02-28T14:16:38;100765.44;;;4.46;56.12
35908;BME280;22003;50.320;8.054;2023-02-28T14:19:14;100771.22;;;3.55;56.89
35908;BME280;22003;50.320;8.054;2023-02-28T14:27:46;100763.78;;;3.69;58.38
35908;BME280;22003;50.320;8.054;2023-02-28T14:33:26;100740.94;;;3.97;56.56
35908;BME280;22003;50.320;8.054;2023-02-28T14:36:10;100759.09;;;4.04;55.75
35908;BME280;22003;50.320;8.054;2023-02-28T14:38:45;100755.31;;;4.36;56.71
35908;BME280;22003;50.320;8.054;2023-02-28T14:41:18;100744.84;;;4.11;56.48
35908;BME280;22003;50.320;8.054;2023-02-28T14:43:54;100750.22;;;4.56;55.44
35908;BME280;22003;50.320;8.054;2023-02-28T14:46:20;100725.50;;;3.90;55.07
35908;BME280;22003;50.320;8.054;2023-02-28T14:48:47;100744.59;;;3.42;57.03
35908;BME280;22003;50.320;8.054;2023-02-28T14:51:18;100737.66;;;3.13;56.52
35908;BME280;22003;50.320;8.054;2023-02-28T14:53:46;100733.41;;;3.37;58.50
35908;BME280;22003;50.320;8.054;2023-02-28T14:56:35;100750.22;;;3.30;58.06
35908;BME280;22003;50.320;8.054;2023-02-28T14:59:02;100750.53;;;3.74;57.33
35908;BME280;22003;50.320;8.054;2023-02-28T15:01:27;100742.38;;;3.56;57.05
35908;BME280;22003;50.320;8.054;2023-02-28T15:04:03;100728.41;;;3.29;58.35
35908;BME280;22003;50.320;8.054;2023-02-28T15:06:30;100731.13;;;2.98;57.60
35908;BME280;22003;50.320;8.054;2023-02-28T15:09:16;100750.63;;;3.17;58.17
35908;BME280;22003;50.320;8.054;2023-02-28T15:11:45;100729.22;;;3.58;58.03
35908;BME280;22003;50.320;8.054;2023-02-28T15:14:17;100729.44;;;4.02;57.49
35908;BME280;22003;50.320;8.054;2023-02-28T15:16:45;100718.50;;;3.90;56.65
35908;BME280;22003;50.320;8.054;2023-02-28T15:19:17;100735.44;;;4.05;57.14
35908;BME280;22003;50.320;8.054;2023-02-28T15:21:48;100697.84;;;3.56;57.42
35908;BME280;22003;50.320;8.054;2023-02-28T15:24:17;100737.63;;;3.67;56.92
35908;BME280;22003;50.320;8.054;2023-02-28T15:26:53;100744.94;;;3.83;58.68
35908;BME280;22003;50.320;8.054;2023-02-28T15:29:22;100744.78;;;3.36;58.07
35908;BME280;22003;50.320;8.054;2023-02-28T15:32:06;100716.53;;;3.46;57.10
35908;BME280;22003;50.320;8.054;2023-02-28T15:37:00;100733.53;;;2.78;59.40
35908;BME280;22003;50.320;8.054;2023-02-28T15:39:27;100742.78;;;2.88;57.51
35908;BME280;22003;50.320;8.054;2023-02-28T15:42:13;100738.31;;;2.91;59.17
35908;BME280;22003;50.320;8.054;2023-02-28T15:44:42;100713.13;;;2.89;58.18
35908;BME280;22003;50.320;8.054;2023-02-28T15:47:17;100733.47;;;2.50;59.60
35908;BME280;22003;50.320;8.054;2023-02-28T15:49:56;100738.88;;;2.73;59.70
35908;BME280;22003;50.320;8.054;2023-02-28T15:52:43;100734.00;;;2.31;59.27
35908;BME280;22003;50.320;8.054;2023-02-28T15:55:21;100724.03;;;2.44;58.68
35908;BME280;22003;50.320;8.054;2023-02-28T15:57:50;100727.47;;;2.76;57.78
35908;BME280;22003;50.320;8.054;2023-02-28T16:00:23;100745.19;;;2.96;58.76
35908;BME280;22003;50.320;8.054;2023-02-28T16:02:49;100706.69;;;2.42;60.64
35908;BME280;22003;50.320;8.054;2023-02-28T16:07:46;100744.50;;;2.30;60.51
35908;BME280;22003;50.320;8.054;2023-02-28T16:10:14;100757.66;;;2.27;61.98
35908;BME280;22003;50.320;8.054;2023-02-28T16:12:40;100759.00;;;2.42;62.67
35908;BME280;22003;50.320;8.054;2023-02-28T16:15:17;100751.94;;;2.44;60.28
35908;BME280;22003;50.320;8.054;2023-02-28T16:17:43;100746.59;;;2.48;60.96
35908;BME280;22003;50.320;8.054;2023-02-28T16:20:15;100745.41;;;2.29;61.65
35908;BME280;22003;50.320;8.054;2023-02-28T16:22:42;100749.06;;;2.23;61.20
35908;BME280;22003;50.320;8.054;2023-02-28T16:25:11;100741.72;;;2.36;60.71
35908;BME280;22003;50.320;8.054;2023-02-28T16:27:37;100753.16;;;2.32;62.21
35908;BME280;22003;50.320;8.054;2023-02-28T16:30:04;100745.22;;;2.35;61.39
35908;BME280;22003;50.320;8.054;2023-02-28T16:32:30;100760.66;;;2.44;61.54
35908;BME280;22003;50.320;8.054;2023-02-28T16:34:56;100746.81;;;2.09;63.18
35908;BME280;22003;50.320;8.054;2023-02-28T16:37:22;100750.81;;;2.23;61.88
35908;BME280;22003;50.320;8.054;2023-02-28T16:39:47;100747.66;;;2.10;63.45
35908;BME280;22003;50.320;8.054;2023-02-28T16:42:21;100756.66;;;1.66;64.77
35908;BME280;22003;50.320;8.054;2023-02-28T16:44:48;100769.56;;;1.72;64.12
35908;BME280;22003;50.320;8.054;2023-02-28T16:47:14;100763.75;;;1.61;63.78
35908;BME280;22003;50.320;8.054;2023-02-28T16:49:39;100752.13;;;1.38;65.42
35908;BME280;22003;50.320;8.054;2023-02-28T16:52:07;100767.31;;;1.22;66.45
35908;BME280;22003;50.320;8.054;2023-02-28T16:54:32;100767.44;;;1.16;66.42
35908;BME280;22003;50.320;8.054;2023-02-28T16:56:57;100757.47;;;0.96;67.63
35908;BME280;22003;50.320;8.054;2023-02-28T16:59:24;100786.69;;;1.12;68.13
35908;BME280;22003;50.320;8.054;2023-02-28T17:01:51;100773.03;;;0.99;67.63
35908;BME280;22003;50.320;8.054;2023-02-28T17:04:17;100774.81;;;0.97;68.22
35908;BME280;22003;50.320;8.054;2023-02-28T17:06:43;100758.50;;;0.89;67.82
35908;BME280;22003;50.320;8.054;2023-02-28T17:09:15;100780.94;;;0.96;67.67
35908;BME280;22003;50.320;8.054;2023-02-28T17:11:42;100800.31;;;1.25;65.43
35908;BME280;22003;50.320;8.054;2023-02-28T17:14:07;100796.50;;;1.01;66.44
35908;BME280;22003;50.320;8.054;2023-02-28T17:16:35;100806.03;;;1.02;66.22
35908;BME280;22003;50.320;8.054;2023-02-28T17:19:04;100807.66;;;1.08;65.80
35908;BME280;22003;50.320;8.054;2023-02-28T17:21:31;100804.06;;;0.73;67.72
35908;BME280;22003;50.320;8.054;2023-02-28T17:23:57;100821.34;;;0.77;68.18
35908;BME280;22003;50.320;8.054;2023-02-28T17:26:23;100820.56;;;0.72;67.56
35908;BME280;22003;50.320;8.054;2023-02-28T17:28:53;100824.22;;;0.65;69.13
35908;BME280;22003;50.320;8.054;2023-02-28T17:31:21;100799.28;;;0.51;68.26
35908;BME280;22003;50.320;8.054;2023-02-28T17:33:46;100822.41;;;0.68;67.21
35908;BME280;22003;50.320;8.054;2023-02-28T17:36:19;100802.16;;;0.38;68.02
35908;BME280;22003;50.320;8.054;2023-02-28T17:38:47;100819.94;;;0.61;66.71
35908;BME280;22003;50.320;8.054;2023-02-28T17:41:12;100820.44;;;0.36;67.83
35908;BME280;22003;50.320;8.054;2023-02-28T17:43:38;100828.84;;;0.50;67.12
35908;BME280;22003;50.320;8.054;2023-02-28T17:46:03;100817.63;;;0.47;67.14
35908;BME280;22003;50.320;8.054;2023-02-28T17:48:30;100835.22;;;0.36;67.67
35908;BME280;22003;50.320;8.054;2023-02-28T17:50:56;100832.75;;;0.26;69.22
35908;BME280;22003;50.320;8.054;2023-02-28T17:53:21;100846.66;;;0.29;69.47
35908;BME280;22003;50.320;8.054;2023-02-28T17:55:48;100854.34;;;0.33;69.80
35908;BME280;22003;50.320;8.054;2023-02-28T17:58:14;100829.41;;;0.20;69.72
35908;BME280;22003;50.320;8.054;2023-02-28T18:00:39;100850.09;;;0.29;70.24
35908;BME280;22003;50.320;8.054;2023-02-28T18:03:05;100860.72;;;0.18;70.64
35908;BME280;22003;50.320;8.054;2023-02-28T18:05:31;100835.13;;;-0.08;70.35
35908;BME280;22003;50.320;8.054;2023-02-28T18:07:56;100852.44;;;-0.07;72.60
35908;BME280;22003;50.320;8.054;2023-02-28T18:10:21;100828.16;;;-0.07;71.32
35908;BME280;22003;50.320;8.054;2023-02-28T18:12:48;100843.75;;;-0.06;71.01
35908;BME280;22003;50.320;8.054;2023-02-28T18:15:15;100825.16;;;-0.35;72.23
35908;BME280;22003;50.320;8.054;2023-02-28T18:17:42;100850.19;;;-0.27;71.93
35908;BME280;22003;50.320;8.054;2023-02-28T18:20:09;100848.25;;;-0.14;70.63
35908;BME280;22003;50.320;8.054;2023-02-28T18:22:36;100855.91;;;-0.05;69.70
35908;BME280;22003;50.320;8.054;2023-02-28T18:25:06;100857.56;;;-0.01;70.08
35908;BME280;22003;50.320;8.054;2023-02-28T18:27:33;100856.81;;;-0.07;71.27
35908;BME280;22003;50.320;8.054;2023-02-28T18:29:58;100849.22;;;-0.21;71.63
35908;BME280;22003;50.320;8.054;2023-02-28T18:32:24;100858.72;;;-0.18;72.43
35908;BME280;22003;50.320;8.054;2023-02-28T18:34:49;100845.91;;;-0.31;73.72
35908;BME280;22003;50.320;8.054;2023-02-28T18:37:14;100850.66;;;-0.57;74.27
35908;BME280;22003;50.320;8.054;2023-02-28T18:39:42;100873.34;;;-0.65;75.63
35908;BME280;22003;50.320;8.054;2023-02-28T18:42:07;100858.22;;;-1.02;76.48
35908;BME280;22003;50.320;8.054;2023-02-28T18:44:33;100864.47;;;-1.15;76.96
35908;BME280;22003;50.320;8.054;2023-02-28T18:46:58;100858.53;;;-1.29;76.88
35908;BME280;22003;50.320;8.054;2023-02-28T18:49:24;100865.50;;;-1.31;77.19
35908;BME280;22003;50.320;8.054;2023-02-28T18:51:49;100844.03;;;-1.47;77.19
35908;BME280;22003;50.320;8.054;2023-02-28T18:54:15;100871.50;;;-1.25;77.10
35908;BME280;22003;50.320;8.054;2023-02-28T18:56:41;100846.75;;;-1.61;77.66
35908;BME280;22003;50.320;8.054;2023-02-28T18:59:07;100842.63;;;-1.79;78.45
35908;BME280;22003;50.320;8.054;2023-02-28T19:01:32;100861.63;;;-1.74;78.73
35908;BME280;22003;50.320;8.054;2023-02-28T19:03:59;100866.06;;;-1.85;79.15
35908;BME280;22003;50.320;8.054;2023-02-28T19:06:26;100868.75;;;-1.94;79.64
35908;BME280;22003;50.320;8.054;2023-02-28T19:08:54;100836.09;;;-2.23;80.20
35908;BME280;22003;50.320;8.054;2023-02-28T19:11:20;100869.78;;;-2.14;80.90
35908;BME280;22003;50.320;8.054;2023-02-28T19:13:46;100883.97;;;-1.57;80.77
35908;BME280;22003;50.320;8.054;2023-02-28T19:16:13;100875.63;;;-1.87;80.30
35908;BME280;22003;50.320;8.054;2023-02-28T19:18:41;100873.16;;;-2.04;81.24
35908;BME280;22003;50.320;8.054;2023-02-28T19:21:07;100883.59;;;-2.12;82.37
35908;BME280;22003;50.320;8.054;2023-02-28T19:23:34;100883.66;;;-2.18;82.79
35908;BME280;22003;50.320;8.054;2023-02-28T19:26:04;100870.81;;;-2.33;83.01
35908;BME280;22003;50.320;8.054;2023-02-28T19:28:30;100880.41;;;-2.44;82.89
35908;BME280;22003;50.320;8.054;2023-02-28T19:30:55;100882.88;;;-2.29;83.32
35908;BME280;22003;50.320;8.054;2023-02-28T19:33:20;100849.88;;;-2.15;81.93
35908;BME280;22003;50.320;8.054;2023-02-28T19:35:46;100890.13;;;-1.68;82.61
35908;BME280;22003;50.320;8.054;2023-02-28T19:38:12;100879.16;;;-1.97;82.57
35908;BME280;22003;50.320;8.054;2023-02-28T19:40:38;100875.63;;;-1.90;82.64
35908;BME280;22003;50.320;8.054;2023-02-28T19:43:03;100872.44;;;-2.23;82.88
35908;BME280;22003;50.320;8.054;2023-02-28T19:45:28;100861.28;;;-2.31;82.93
35908;BME280;22003;50.320;8.054;2023-02-28T19:47:54;100882.81;;;-2.23;82.85